Time;durP1;ratioP1;P1;durP2;ratioP2;P2;SDS_P1;SDS_P2;PMS_P1;PMS_P2;Temp;Humidity;BMP_temperature;BMP_pressure;BME280_temperature;BME280_humidity;BME280_pressure;Samples;Min_cycle;Max_cycle;Signal;HPM_P1;HPM_P2
2022/06/29 00:00:27;;;;;;;9.77;3.45;;;;;;;27.59;47.87;99540.97;4495556;31;33415;-60
2022/06/29 00:02:55;;;;;;;11.68;3.85;;;;;;;27.51;47.89;99538.53;4492431;31;34216;-59
2022/06/29 00:05:24;;;;;;;6.28;3.47;;;;;;;27.34;48.24;99541.03;4494628;31;32744;-59
2022/06/29 00:07:53;;;;;;;6.82;3.90;;;;;;;27.44;48.05;99543.25;4498714;31;33717;-62
2022/06/29 00:10:23;;;;;;;5.62;3.60;;;;;;;27.47;48.01;99540.06;4497837;31;33812;-61
2022/06/29 00:12:51;;;;;;;6.20;3.58;;;;;;;27.53;47.78;99528.13;4489965;31;33320;-59
2022/06/29 00:15:20;;;;;;;8.00;3.92;;;;;;;27.60;47.82;99525.31;4490504;31;33836;-60
2022/06/29 00:17:49;;;;;;;6.45;3.65;;;;;;;27.69;47.68;99525.84;4497580;31;34087;-62
2022/06/29 00:20:16;;;;;;;6.93;3.80;;;;;;;27.63;47.58;99531.19;4498503;31;33915;-60
2022/06/29 00:22:45;;;;;;;5.45;3.30;;;;;;;27.53;47.85;99533.63;4488093;31;33375;-59
2022/06/29 00:25:14;;;;;;;6.22;3.35;;;;;;;27.48;48.00;99532.62;4486703;31;33809;-62
2022/06/29 00:27:43;;;;;;;11.35;3.67;;;;;;;27.39;48.14;99535.72;4498080;31;35115;-59
2022/06/29 00:30:11;;;;;;;4.57;3.10;;;;;;;27.12;48.99;99524.12;4493290;31;35081;-62
2022/06/29 00:32:39;;;;;;;7.25;3.45;;;;;;;27.13;48.81;99520.37;4489759;31;33278;-59
2022/06/29 00:35:07;;;;;;;5.97;3.58;;;;;;;27.15;48.87;99514.63;4481998;32;33615;-59
2022/06/29 00:37:35;;;;;;;5.43;3.28;;;;;;;27.20;48.72;99512.06;4488710;31;34973;-59
2022/06/29 00:40:03;;;;;;;5.30;3.30;;;;;;;27.39;48.13;99510.16;4483751;31;33942;-61
2022/06/29 00:42:31;;;;;;;6.82;3.70;;;;;;;27.41;48.07;99502.50;4490025;31;34047;-62
2022/06/29 00:44:59;;;;;;;5.87;3.20;;;;;;;27.36;48.45;99503.19;4495034;31;33607;-59
2022/06/29 00:47:27;;;;;;;5.65;2.92;;;;;;;27.37;48.26;99498.53;4497044;31;33762;-60
2022/06/29 00:49:55;;;;;;;8.20;4.18;;;;;;;27.39;47.86;99500.00;4495902;31;33802;-59
2022/06/29 00:52:25;;;;;;;8.07;3.65;;;;;;;27.50;47.57;99497.53;4494661;31;33619;-62
2022/06/29 00:54:54;;;;;;;7.43;3.60;;;;;;;27.44;47.66;99499.28;4494717;31;34353;-59
2022/06/29 00:57:26;;;;;;;6.78;3.50;;;;;;;27.43;47.71;99505.03;4488630;31;32205;-59
2022/06/29 00:59:58;;;;;;;6.20;3.40;;;;;;;27.40;47.59;99493.41;4480947;32;32390;-60
2022/06/29 01:02:33;;;;;;;7.97;3.80;;;;;;;27.46;47.59;99502.66;4490866;31;33245;-63
2022/06/29 01:05:02;;;;;;;6.68;3.42;;;;;;;27.38;47.74;99494.72;4496835;31;32209;-59
2022/06/29 01:07:32;;;;;;;8.00;3.58;;;;;;;27.41;47.79;99497.84;4492835;31;32436;-61
2022/06/29 01:10:00;;;;;;;5.40;3.45;;;;;;;27.36;47.91;99491.37;4496196;31;35048;-63
2022/06/29 01:12:28;;;;;;;8.02;3.30;;;;;;;27.31;47.82;99491.22;4494873;31;31364;-59
2022/06/29 01:14:56;;;;;;;5.35;3.60;;;;;;;27.34;47.96;99501.75;4496553;31;34620;-59
2022/06/29 01:17:24;;;;;;;7.03;3.60;;;;;;;27.29;48.03;99490.63;4496354;31;34701;-60
2022/06/29 01:19:52;;;;;;;4.90;3.30;;;;;;;27.28;47.95;99502.66;4495035;31;33704;-61
2022/06/29 01:22:22;;;;;;;6.20;3.05;;;;;;;27.25;47.91;99501.19;4492502;31;34157;-62
2022/06/29 01:24:50;;;;;;;11.23;3.55;;;;;;;27.16;48.07;99503.44;4492954;31;32743;-60
2022/06/29 01:27:19;;;;;;;5.78;3.10;;;;;;;27.16;48.13;99500.69;4489489;31;34028;-62
2022/06/29 01:29:46;;;;;;;7.10;3.60;;;;;;;27.17;47.91;99496.88;4497286;31;34923;-64
2022/06/29 01:32:14;;;;;;;6.95;3.42;;;;;;;27.15;48.15;99496.25;4492147;31;33383;-59
2022/06/29 01:34:43;;;;;;;5.93;3.33;;;;;;;27.09;48.09;99499.88;4495367;31;33412;-61
2022/06/29 01:37:11;;;;;;;7.30;3.70;;;;;;;27.12;48.29;99490.34;4494120;31;33917;-62
2022/06/29 01:39:40;;;;;;;5.00;3.28;;;;;;;26.99;48.42;99485.00;4492432;31;34211;-59
2022/06/29 01:42:09;;;;;;;6.20;3.40;;;;;;;26.97;48.44;99485.25;4490856;31;34520;-59
2022/06/29 01:44:37;;;;;;;6.78;3.65;;;;;;;27.03;48.30;99476.09;4489864;31;35250;-59
2022/06/29 01:47:04;;;;;;;5.43;3.50;;;;;;;27.00;48.48;99478.44;4492069;31;34859;-60
2022/06/29 01:49:32;;;;;;;5.35;3.30;;;;;;;27.01;48.40;99478.22;4497695;31;33894;-63
2022/06/29 01:52:00;;;;;;;6.30;3.22;;;;;;;27.02;48.29;99471.66;4491996;31;33283;-63
2022/06/29 01:54:27;;;;;;;5.12;3.30;;;;;;;26.91;48.62;99473.25;4498328;31;33555;-60
2022/06/29 01:56:55;;;;;;;6.18;3.33;;;;;;;27.03;48.36;99475.22;4492759;31;33814;-59
2022/06/29 01:59:23;;;;;;;5.43;3.53;;;;;;;27.02;48.23;99471.66;4496888;31;33938;-61
2022/06/29 02:01:50;;;;;;;6.07;3.45;;;;;;;27.04;48.21;99472.28;4494280;31;33092;-60
2022/06/29 02:04:18;;;;;;;6.18;3.70;;;;;;;26.88;48.72;99470.13;4495632;31;34963;-59
2022/06/29 02:06:46;;;;;;;7.05;3.50;;;;;;;26.88;48.61;99468.22;4496659;31;35038;-60
2022/06/29 02:09:13;;;;;;;6.03;3.53;;;;;;;26.81;48.75;99469.38;4497088;31;34432;-58
2022/06/29 02:11:41;;;;;;;7.12;3.40;;;;;;;26.85;48.60;99474.16;4494466;31;33137;-62
2022/06/29 02:14:09;;;;;;;5.75;3.45;;;;;;;26.83;48.53;99462.56;4495300;31;34748;-60
2022/06/29 02:16:37;;;;;;;9.05;3.30;;;;;;;26.87;48.47;99460.19;4489986;31;33884;-59
2022/06/29 02:19:05;;;;;;;4.72;3.10;;;;;;;26.88;48.37;99465.47;4497039;31;34567;-59
2022/06/29 02:21:33;;;;;;;5.60;3.33;;;;;;;26.74;48.74;99463.06;4496604;31;33060;-59
2022/06/29 02:24:00;;;;;;;7.03;3.65;;;;;;;26.76;48.75;99464.53;4496255;31;33455;-59
2022/06/29 02:26:29;;;;;;;6.12;3.72;;;;;;;26.80;48.69;99459.44;4494387;31;33597;-61
2022/06/29 02:28:57;;;;;;;7.22;3.67;;;;;;;26.83;48.55;99454.31;4488591;31;33943;-59
2022/06/29 02:36:57;;;;;;;6.85;3.35;;;;;;;26.86;48.57;99462.09;4496783;31;34023;-59
2022/06/29 02:39:25;;;;;;;8.27;3.78;;;;;;;26.74;49.22;99468.56;4496449;31;33682;-61
2022/06/29 02:41:52;;;;;;;7.07;3.78;;;;;;;26.83;49.19;99461.72;4496881;31;32107;-59
2022/06/29 02:44:20;;;;;;;5.75;3.55;;;;;;;26.73;49.40;99459.50;4493874;31;33875;-61
2022/06/29 02:46:48;;;;;;;6.30;3.50;;;;;;;26.84;49.06;99461.50;4493048;31;33820;-59
2022/06/29 02:49:15;;;;;;;7.75;4.15;;;;;;;26.89;48.92;99467.13;4491690;31;33638;-62
2022/06/29 02:51:43;;;;;;;6.97;3.87;;;;;;;26.92;48.81;99455.69;4496558;31;33221;-59
2022/06/29 02:54:11;;;;;;;6.25;3.75;;;;;;;26.98;48.79;99456.69;4495796;31;33570;-62
2022/06/29 02:56:39;;;;;;;6.43;3.80;;;;;;;26.98;48.73;99459.44;4496249;31;35911;-62
2022/06/29 02:59:06;;;;;;;6.40;3.83;;;;;;;26.86;48.89;99456.59;4496862;31;33913;-60
2022/06/29 03:01:35;;;;;;;5.28;3.45;;;;;;;26.93;48.91;99456.53;4493598;31;33099;-59
2022/06/29 03:04:02;;;;;;;10.63;4.62;;;;;;;27.00;49.00;99459.19;4492145;31;33509;-60
2022/06/29 03:06:30;;;;;;;5.60;3.60;;;;;;;27.00;48.79;99459.19;4493528;31;34242;-63
2022/06/29 03:08:58;;;;;;;6.68;4.10;;;;;;;26.98;48.78;99467.69;4497564;31;33807;-60
2022/06/29 03:11:25;;;;;;;9.13;4.40;;;;;;;27.01;48.70;99469.13;4495173;31;34106;-61
2022/06/29 03:13:53;;;;;;;6.55;4.28;;;;;;;27.01;48.61;99460.91;4495897;31;33905;-59
2022/06/29 03:16:20;;;;;;;7.07;4.05;;;;;;;27.02;48.45;99466.16;4495246;31;32914;-59
2022/06/29 03:18:49;;;;;;;6.45;4.12;;;;;;;26.94;48.57;99469.22;4497769;31;32898;-61
2022/06/29 03:21:17;;;;;;;5.72;3.37;;;;;;;27.00;48.55;99467.44;4495492;31;33629;-60
2022/06/29 03:23:45;;;;;;;6.78;4.12;;;;;;;26.99;48.74;99468.53;4492289;31;33715;-59
2022/06/29 03:26:13;;;;;;;6.65;4.47;;;;;;;26.87;49.45;99461.06;4495427;31;34545;-61
2022/06/29 03:28:40;;;;;;;8.15;4.07;;;;;;;26.97;49.34;99455.03;4497184;31;33612;-60
2022/06/29 03:31:08;;;;;;;7.87;4.47;;;;;;;26.98;49.70;99458.63;4496578;31;33409;-60
2022/06/29 03:33:36;;;;;;;7.20;4.65;;;;;;;27.02;49.66;99462.56;4493275;31;33911;-61
2022/06/29 03:36:03;;;;;;;7.93;4.53;;;;;;;27.15;49.34;99471.53;4495809;31;35373;-60
2022/06/29 03:38:31;;;;;;;5.95;3.97;;;;;;;27.25;49.06;99472.91;4494522;31;33606;-62
2022/06/29 03:40:59;;;;;;;6.43;4.15;;;;;;;27.30;48.95;99476.63;4495334;31;33196;-58
2022/06/29 03:43:26;;;;;;;5.80;4.03;;;;;;;27.35;48.73;99467.69;4489608;31;33688;-60
2022/06/29 03:45:54;;;;;;;7.75;4.18;;;;;;;27.40;48.63;99471.44;4496890;31;32995;-59
2022/06/29 03:48:21;;;;;;;7.12;4.30;;;;;;;27.36;48.71;99474.87;4495662;31;33570;-59
2022/06/29 03:50:49;;;;;;;8.45;4.68;;;;;;;27.32;48.86;99477.25;4496221;31;33455;-61
2022/06/29 03:53:17;;;;;;;8.18;4.22;;;;;;;27.37;48.93;99485.63;4493792;31;33478;-62
2022/06/29 03:55:45;;;;;;;8.15;4.97;;;;;;;27.27;49.22;99482.59;4495207;31;34760;-59
2022/06/29 03:58:12;;;;;;;9.73;5.05;;;;;;;27.31;49.08;99475.56;4493886;31;34919;-59
2022/06/29 04:00:40;;;;;;;7.72;4.82;;;;;;;27.25;49.41;99467.41;4495590;31;32537;-61
2022/06/29 04:03:08;;;;;;;6.65;4.50;;;;;;;27.39;49.47;99460.69;4495678;31;35020;-59
2022/06/29 04:05:35;;;;;;;7.78;4.40;;;;;;;27.36;49.02;99461.16;4495453;31;34353;-60
2022/06/29 04:08:03;;;;;;;10.20;4.87;;;;;;;27.35;49.35;99462.19;4493863;31;32534;-61
2022/06/29 04:10:31;;;;;;;10.32;4.93;;;;;;;27.54;48.78;99461.09;4492362;31;32399;-59
2022/06/29 04:12:59;;;;;;;8.43;5.07;;;;;;;27.60;48.63;99460.16;4496346;31;33667;-59
2022/06/29 04:15:26;;;;;;;9.73;5.03;;;;;;;27.53;48.87;99469.59;4490293;31;35246;-59
2022/06/29 04:17:54;;;;;;;8.68;5.07;;;;;;;27.68;48.17;99461.78;4496229;31;34481;-59
2022/06/29 04:23:08;;;;;;;7.47;5.07;;;;;;;27.85;47.86;99470.22;4494202;31;35491;-61
2022/06/29 04:25:36;;;;;;;6.87;4.50;;;;;;;27.92;47.75;99467.37;4496597;31;33854;-59
2022/06/29 04:28:06;;;;;;;8.15;5.00;;;;;;;27.96;47.47;99474.94;4491561;31;34479;-59
2022/06/29 04:30:33;;;;;;;7.07;4.62;;;;;;;27.87;47.37;99476.34;4493877;31;32562;-59
2022/06/29 04:33:01;;;;;;;6.68;4.47;;;;;;;28.02;47.21;99473.97;4493337;31;34547;-61
2022/06/29 04:35:28;;;;;;;7.43;4.90;;;;;;;28.09;47.09;99474.72;4494916;31;32564;-59
2022/06/29 04:37:56;;;;;;;7.95;5.28;;;;;;;28.17;46.32;99470.78;4493149;31;33757;-59
2022/06/29 04:40:24;;;;;;;7.68;5.25;;;;;;;28.03;46.34;99478.41;4497071;31;31820;-59
2022/06/29 04:42:51;;;;;;;9.23;5.20;;;;;;;28.13;46.29;99480.59;4493286;31;33805;-62
2022/06/29 04:48:05;;;;;;;8.32;5.25;;;;;;;27.47;47.37;99471.34;4494762;31;34629;-58
2022/06/29 04:50:33;;;;;;;12.57;5.97;;;;;;;27.76;46.54;99472.41;4495655;31;33222;-59
2022/06/29 04:53:01;;;;;;;8.63;5.85;;;;;;;27.77;46.48;99478.78;4494989;31;35442;-61
2022/06/29 04:55:29;;;;;;;7.40;4.97;;;;;;;27.57;47.03;99476.28;4493222;31;34194;-61
2022/06/29 04:57:57;;;;;;;7.72;5.20;;;;;;;27.90;46.93;99480.50;4491336;31;32348;-59
2022/06/29 05:00:25;;;;;;;9.02;5.32;;;;;;;27.90;46.05;99475.00;4487370;31;33361;-59
2022/06/29 05:02:52;;;;;;;8.20;5.12;;;;;;;27.47;47.22;99479.59;4492555;31;33863;-60
2022/06/29 05:05:20;;;;;;;8.05;5.30;;;;;;;27.81;46.22;99477.28;4493078;31;34618;-59
2022/06/29 05:07:48;;;;;;;6.57;4.85;;;;;;;28.17;45.49;99472.69;4490240;31;33231;-62
2022/06/29 05:10:16;;;;;;;7.03;4.85;;;;;;;27.92;46.57;99476.47;4497033;31;33235;-59
2022/06/29 05:12:43;;;;;;;9.52;5.62;;;;;;;27.83;45.99;99475.97;4494790;31;35053;-59
2022/06/29 05:15:11;;;;;;;10.65;4.85;;;;;;;27.65;46.71;99478.72;4494258;31;34079;-61
2022/06/29 05:17:39;;;;;;;7.72;5.30;;;;;;;27.77;46.80;99476.03;4493845;31;33864;-64
2022/06/29 05:20:09;;;;;;;10.50;5.28;;;;;;;28.12;45.89;99483.56;4494335;31;34465;-59
2022/06/29 05:22:36;;;;;;;8.02;4.72;;;;;;;27.64;46.09;99486.12;4492431;31;32563;-60
2022/06/29 05:25:05;;;;;;;8.15;5.25;;;;;;;27.87;46.36;99479.91;4498641;31;34038;-59
2022/06/29 05:27:33;;;;;;;10.48;5.35;;;;;;;27.92;45.79;99492.13;4484445;31;32602;-62
2022/06/29 05:30:01;;;;;;;7.90;5.35;;;;;;;27.95;45.91;99480.66;4489947;31;34387;-59
2022/06/29 05:32:28;;;;;;;7.40;5.25;;;;;;;28.02;46.02;99489.63;4498062;31;33613;-61
2022/06/29 05:34:56;;;;;;;9.10;4.90;;;;;;;27.73;46.02;99496.78;4489538;31;33636;-60
2022/06/29 05:37:24;;;;;;;8.10;4.90;;;;;;;27.75;46.43;99489.16;4496187;31;33859;-59
2022/06/29 05:39:51;;;;;;;7.72;4.93;;;;;;;27.96;45.62;99482.31;4492750;31;33461;-59
2022/06/29 05:42:19;;;;;;;7.18;5.25;;;;;;;27.97;45.53;99473.03;4496820;31;33644;-59
2022/06/29 05:44:47;;;;;;;7.15;4.90;;;;;;;28.25;44.98;99475.09;4498920;31;33905;-63
2022/06/29 05:47:14;;;;;;;7.97;4.72;;;;;;;28.18;45.17;99466.94;4492184;31;32387;-59
2022/06/29 05:49:42;;;;;;;7.80;4.90;;;;;;;28.22;44.93;99473.69;4489308;31;33470;-62
2022/06/29 05:52:10;;;;;;;11.05;5.80;;;;;;;28.10;44.41;99470.91;4491881;31;34757;-59
2022/06/29 05:54:38;;;;;;;7.18;4.47;;;;;;;28.27;45.13;99475.72;4496854;31;33982;-62
2022/06/29 05:57:06;;;;;;;8.52;5.07;;;;;;;28.37;44.26;99470.44;4495484;31;33916;-59
2022/06/29 05:59:34;;;;;;;13.95;5.30;;;;;;;28.47;44.34;99470.72;4492956;31;33173;-59
2022/06/29 06:02:01;;;;;;;9.43;5.22;;;;;;;28.45;44.19;99475.66;4488404;31;32478;-61
2022/06/29 06:04:29;;;;;;;7.57;5.00;;;;;;;28.54;43.95;99467.87;4494450;31;34107;-59
2022/06/29 06:06:57;;;;;;;10.18;5.00;;;;;;;28.24;44.33;99466.00;4498625;31;33649;-62
2022/06/29 06:09:27;;;;;;;9.25;5.57;;;;;;;28.48;43.85;99464.16;4497585;31;34886;-59
2022/06/29 06:11:55;;;;;;;8.68;5.37;;;;;;;28.34;43.99;99462.66;4497138;31;33157;-61
2022/06/29 06:14:23;;;;;;;9.48;5.15;;;;;;;28.40;44.09;99453.50;4498768;31;33904;-61
2022/06/29 06:16:51;;;;;;;10.98;5.37;;;;;;;28.61;43.98;99459.50;4500402;31;33893;-61
2022/06/29 06:19:19;;;;;;;8.10;5.12;;;;;;;28.91;43.18;99462.94;4498761;31;33477;-60
2022/06/29 06:21:47;;;;;;;8.75;5.68;;;;;;;28.21;44.57;99458.22;4493676;31;33355;-61
2022/06/29 06:24:14;;;;;;;8.75;4.95;;;;;;;28.43;44.46;99465.94;4496424;31;33913;-60
2022/06/29 06:26:42;;;;;;;9.68;5.35;;;;;;;28.94;44.06;99464.38;4498931;31;32464;-62
2022/06/29 06:29:10;;;;;;;8.43;5.07;;;;;;;28.88;43.74;99462.59;4490304;31;33420;-61
2022/06/29 06:31:37;;;;;;;8.68;5.00;;;;;;;29.04;44.62;99467.41;4496976;31;33822;-61
2022/06/29 06:34:05;;;;;;;8.10;5.37;;;;;;;29.23;43.32;99463.41;4499910;31;35152;-60
2022/06/29 06:36:33;;;;;;;8.73;5.97;;;;;;;29.18;42.45;99459.69;4489870;31;33564;-63
2022/06/29 06:39:01;;;;;;;8.63;5.43;;;;;;;29.32;43.79;99469.38;4495780;31;33632;-60
2022/06/29 06:41:29;;;;;;;10.23;4.80;;;;;;;29.57;41.68;99474.56;4497263;31;33998;-61
2022/06/29 06:43:58;;;;;;;9.15;5.90;;;;;;;29.45;41.75;99466.34;4497944;31;35173;-60
2022/06/29 06:46:28;;;;;;;6.93;5.62;;;;;;;29.12;43.06;99458.75;4493883;31;34949;-62
2022/06/29 06:48:56;;;;;;;7.20;5.40;;;;;;;29.44;42.34;99459.16;4498123;31;32627;-60
2022/06/29 06:51:24;;;;;;;7.25;5.07;;;;;;;28.55;44.07;99453.88;4492743;31;34648;-59
2022/06/29 06:53:52;;;;;;;7.85;5.40;;;;;;;29.01;43.60;99454.09;4490116;31;34061;-62
2022/06/29 06:56:20;;;;;;;10.05;5.22;;;;;;;29.53;42.13;99445.78;4495435;31;34526;-62
2022/06/29 06:58:48;;;;;;;10.38;5.70;;;;;;;29.09;43.22;99447.41;4497928;31;32001;-59
2022/06/29 07:01:21;;;;;;;8.80;4.82;;;;;;;29.67;42.57;99443.63;4496438;31;34910;-59
2022/06/29 07:03:50;;;;;;;9.15;5.25;;;;;;;28.99;42.99;99446.06;4496179;31;35011;-59
2022/06/29 07:06:17;;;;;;;10.13;5.25;;;;;;;29.58;41.72;99448.66;4495753;31;34629;-60
2022/06/29 07:08:46;;;;;;;8.73;5.70;;;;;;;29.43;42.54;99434.56;4498516;31;34084;-62
2022/06/29 07:11:14;;;;;;;10.15;5.18;;;;;;;29.32;43.06;99436.31;4496949;31;34948;-61
2022/06/29 07:13:41;;;;;;;9.63;5.43;;;;;;;29.32;43.24;99435.47;4497952;31;33376;-61
2022/06/29 07:16:09;;;;;;;7.80;5.43;;;;;;;29.89;42.46;99433.56;4500530;31;34086;-62
2022/06/29 07:18:37;;;;;;;8.20;5.25;;;;;;;30.02;41.45;99434.34;4497772;31;33535;-59
2022/06/29 07:21:05;;;;;;;8.27;5.00;;;;;;;29.82;41.92;99432.84;4495128;31;33881;-61
2022/06/29 07:23:33;;;;;;;8.27;4.72;;;;;;;30.34;41.71;99434.63;4492822;31;34163;-62
2022/06/29 07:26:01;;;;;;;8.23;4.97;;;;;;;30.60;40.62;99433.09;4498901;31;34141;-60
2022/06/29 07:28:28;;;;;;;8.32;5.65;;;;;;;30.34;41.05;99427.19;4496539;31;33689;-62
2022/06/29 07:30:56;;;;;;;7.57;4.60;;;;;;;30.73;40.20;99426.38;4493665;31;191978;-59
2022/06/29 07:33:24;;;;;;;9.00;4.93;;;;;;;30.46;40.29;99434.50;4488566;31;32124;-62
2022/06/29 07:35:51;;;;;;;8.32;5.18;;;;;;;30.70;39.43;99430.47;4488283;31;32534;-59
2022/06/29 07:38:19;;;;;;;8.30;4.93;;;;;;;30.79;39.95;99428.97;4493302;31;33123;-61
2022/06/29 07:40:47;;;;;;;6.55;4.43;;;;;;;30.53;39.19;99424.13;4496685;31;34818;-63
2022/06/29 07:43:14;;;;;;;9.82;5.50;;;;;;;30.65;39.89;99416.56;4498292;31;32783;-61
2022/06/29 07:45:43;;;;;;;10.68;4.53;;;;;;;30.76;39.51;99425.88;4496448;31;34557;-63
2022/06/29 07:48:10;;;;;;;9.00;5.12;;;;;;;30.57;39.49;99426.16;4484550;31;33386;-61
2022/06/29 07:50:38;;;;;;;8.93;5.68;;;;;;;30.67;39.86;99427.38;4496651;31;33866;-61
2022/06/29 07:53:06;;;;;;;8.88;4.78;;;;;;;30.79;38.91;99428.97;4495111;31;32795;-59
2022/06/29 07:55:34;;;;;;;8.90;5.28;;;;;;;30.61;38.47;99435.59;4496116;31;34885;-62
2022/06/29 07:58:01;;;;;;;8.90;4.97;;;;;;;31.06;38.50;99425.47;4495731;31;33164;-60
2022/06/29 08:00:29;;;;;;;7.70;5.20;;;;;;;30.84;39.61;99429.03;4496764;31;33772;-64
2022/06/29 08:02:57;;;;;;;10.02;5.35;;;;;;;30.76;39.06;99425.88;4483987;31;32428;-62
2022/06/29 08:05:25;;;;;;;11.32;5.43;;;;;;;31.09;39.53;99430.47;4494368;31;32577;-61
2022/06/29 08:07:52;;;;;;;7.22;4.93;;;;;;;30.84;38.81;99417.16;4493948;31;33055;-59
2022/06/29 08:10:21;;;;;;;9.85;5.40;;;;;;;31.12;38.44;99416.16;4487215;31;33903;-59
2022/06/29 08:12:49;;;;;;;7.45;5.05;;;;;;;30.83;39.41;99424.59;4496495;31;35247;-61
2022/06/29 08:15:17;;;;;;;11.25;5.32;;;;;;;31.38;38.53;99420.06;4500138;31;33761;-63
2022/06/29 08:17:45;;;;;;;9.45;5.87;;;;;;;31.23;38.63;99422.63;4497743;31;34403;-62
2022/06/29 08:20:13;;;;;;;14.60;6.05;;;;;;;31.06;38.65;99418.00;4494238;31;33472;-59
2022/06/29 08:22:41;;;;;;;10.32;5.53;;;;;;;31.32;38.27;99421.91;4496040;31;34207;-59
2022/06/29 08:25:09;;;;;;;11.05;5.03;;;;;;;31.52;38.15;99423.25;4499015;31;34018;-60
2022/06/29 08:27:37;;;;;;;9.13;4.60;;;;;;;31.78;37.46;99416.06;4487425;31;32869;-61
2022/06/29 08:30:14;;;;;;;8.48;4.45;;;;;;;31.98;36.07;99426.53;4495846;31;34269;-61
2022/06/29 08:32:43;;;;;;;8.18;5.18;;;;;;;31.87;35.76;99416.44;4485505;31;32594;-60
2022/06/29 08:35:12;;;;;;;7.00;4.30;;;;;;;31.82;35.85;99416.41;4498371;31;34311;-61
2022/06/29 08:37:40;;;;;;;7.47;5.00;;;;;;;32.06;35.86;99416.91;4499274;31;33135;-62
2022/06/29 08:40:09;;;;;;;8.45;5.00;;;;;;;32.10;34.90;99404.22;4497394;31;33983;-64
2022/06/29 08:42:37;;;;;;;8.38;4.90;;;;;;;31.63;35.79;99407.63;4487338;31;33769;-61
2022/06/29 08:45:07;;;;;;;8.95;5.70;;;;;;;31.49;36.23;99401.66;4495443;31;34936;-63
2022/06/29 08:47:35;;;;;;;13.00;5.70;;;;;;;31.86;35.83;99407.31;4493320;31;34543;-61
2022/06/29 08:50:06;;;;;;;9.07;4.78;;;;;;;31.88;35.94;99407.03;4495708;31;32570;-60
2022/06/29 08:52:35;;;;;;;7.10;4.75;;;;;;;32.35;35.60;99409.94;4495154;31;35066;-60
2022/06/29 08:55:05;;;;;;;9.05;4.50;;;;;;;32.47;34.83;99401.47;4483048;31;32349;-59
2022/06/29 08:57:37;;;;;;;11.88;4.40;;;;;;;32.39;34.99;99408.34;4496865;31;33312;-59
2022/06/29 09:00:07;;;;;;;8.98;5.07;;;;;;;32.93;34.29;99410.06;4489587;31;33617;-59
2022/06/29 09:02:35;;;;;;;10.43;5.30;;;;;;;32.42;34.00;99405.00;4491226;31;33044;-61
2022/06/29 09:05:03;;;;;;;7.62;4.20;;;;;;;32.51;34.26;99401.78;4500002;31;35291;-59
2022/06/29 09:07:32;;;;;;;10.32;4.37;;;;;;;32.76;33.93;99396.38;4473651;31;32078;-63
2022/06/29 09:10:07;;;;;;;6.70;3.42;;;;;;;33.06;33.11;99392.94;4483758;31;32603;-59
2022/06/29 09:12:36;;;;;;;7.25;4.18;;;;;;;33.08;31.86;99396.28;4488928;31;32896;-63
2022/06/29 09:15:07;;;;;;;8.85;3.78;;;;;;;33.57;31.36;99393.13;4493901;31;33611;-61
2022/06/29 09:17:36;;;;;;;5.35;3.70;;;;;;;33.55;31.96;99398.16;4498771;31;33635;-61
2022/06/29 09:20:04;;;;;;;7.22;3.50;;;;;;;33.68;30.96;99396.78;4498093;31;33899;-62
2022/06/29 09:22:54;;;;;;;6.37;3.72;;;;;;;34.13;29.67;99381.28;4501011;31;33915;-59
2022/06/29 09:25:27;;;;;;;4.78;3.28;;;;;;;34.40;29.91;99388.47;4500574;31;32955;-61
2022/06/29 09:27:55;;;;;;;6.65;3.40;;;;;;;34.66;29.41;99386.50;4493896;31;33458;-59
2022/06/29 09:30:31;;;;;;;6.15;3.55;;;;;;;34.51;29.46;99390.97;4493674;31;34063;-60
2022/06/29 09:32:59;;;;;;;;;;;;;;;34.16;29.19;99390.97;4480081;31;32524;-61
2022/06/29 09:35:28;;;;;;;11.10;3.58;;;;;;;34.48;29.28;99390.66;4491876;31;34311;-61
2022/06/29 09:38:22;;;;;;;6.55;3.55;;;;;;;34.29;29.41;99391.28;4498384;31;33479;-59
2022/06/29 09:41:08;;;;;;;7.22;3.85;;;;;;;34.24;29.73;99384.88;4492513;31;32408;-60
2022/06/29 09:43:37;;;;;;;5.65;3.10;;;;;;;34.40;30.03;99378.19;4493468;31;34135;-61
2022/06/29 09:46:06;;;;;;;5.62;3.08;;;;;;;34.93;28.45;99384.19;4499271;31;34094;-61
2022/06/29 09:48:35;;;;;;;5.55;2.60;;;;;;;35.11;28.94;99374.41;4499495;31;34303;-61
2022/06/29 09:51:30;;;;;;;6.30;3.55;;;;;;;34.94;27.28;99373.91;4491373;31;32441;-60
2022/06/29 09:53:55;;;;;;;11.98;3.50;;;;;;;35.19;28.46;99386.91;4499093;31;35412;-61
2022/06/29 09:56:24;;;;;;;8.90;3.60;;;;;;;35.35;28.12;99373.75;4499860;31;33366;-61
2022/06/29 09:58:52;;;;;;;11.73;3.85;;;;;;;35.21;28.79;99366.00;4486849;31;33092;-62
2022/06/29 10:04:12;;;;;;;7.87;3.75;;;;;;;35.65;27.21;99370.78;4500175;31;34227;-60
2022/06/29 10:06:41;;;;;;;7.82;3.60;;;;;;;34.95;28.71;99356.94;4498127;31;32666;-63
2022/06/29 10:09:08;;;;;;;7.82;3.20;;;;;;;35.50;29.08;99358.88;4488043;31;34506;-62
2022/06/29 10:15:22;;;;;;;7.20;2.95;;;;;;;35.66;26.76;99347.38;4455825;31;33650;-60
2022/06/29 10:17:57;;;;;;;6.18;3.62;;;;;;;35.43;27.24;99351.69;4485776;31;35004;-61
2022/06/29 10:20:45;;;;;;;5.03;2.87;;;;;;;35.62;27.38;99342.69;4477574;31;31974;-60
2022/06/29 10:23:48;;;;;;;5.85;2.95;;;;;;;35.58;26.33;99347.19;4486421;31;33998;-61
2022/06/29 10:26:28;;;;;;;6.00;3.50;;;;;;;35.91;24.76;99335.22;4485476;31;35144;-59
2022/06/29 10:28:56;;;;;;;7.00;3.55;;;;;;;36.25;25.40;99334.38;4483673;31;33630;-59
2022/06/29 10:31:53;;;;;;;4.70;2.75;;;;;;;36.10;26.14;99340.09;4487649;31;33491;-59
2022/06/29 10:37:08;;;;;;;5.75;3.03;;;;;;;36.56;24.47;99323.75;4495676;31;34579;-60
2022/06/29 10:39:48;;;;;;;7.40;3.70;;;;;;;36.80;24.01;99322.94;4494965;31;34839;-60
2022/06/29 10:45:20;;;;;;;5.60;3.50;;;;;;;35.82;25.95;99325.81;4492968;31;31435;-60
2022/06/29 10:47:53;;;;;;;8.50;4.22;;;;;;;36.37;26.29;99323.69;4491154;31;34185;-62
2022/06/29 10:50:26;;;;;;;8.10;3.58;;;;;;;36.60;25.15;99312.84;4497114;31;34058;-60
2022/06/29 10:53:06;;;;;;;5.40;3.35;;;;;;;36.23;25.32;99302.38;4499785;31;34453;-64
2022/06/29 10:55:39;;;;;;;5.50;3.35;;;;;;;36.75;25.06;99304.28;4495338;31;34032;-61
2022/06/29 10:58:08;;;;;;;6.65;3.00;;;;;;;36.37;24.57;99306.97;4493805;31;35611;-63
2022/06/29 11:00:38;;;;;;;5.78;3.35;;;;;;;36.60;24.69;99301.72;4494120;31;34782;-62
2022/06/29 11:03:09;;;;;;;5.65;3.50;;;;;;;36.27;25.71;99307.03;4491082;31;32883;-62
2022/06/29 11:05:38;;;;;;;7.20;4.43;;;;;;;36.44;25.38;99309.38;4498813;31;32936;-62
2022/06/29 11:13:22;;;;;;;6.62;3.25;;;;;;;37.34;23.39;99290.09;4490341;31;31940;-61
2022/06/29 11:15:51;;;;;;;9.40;3.47;;;;;;;37.05;24.79;99293.91;4491610;31;33987;-61
2022/06/29 11:18:20;;;;;;;5.43;3.47;;;;;;;36.98;24.08;99290.63;4493775;31;34885;-62
2022/06/29 11:20:49;;;;;;;9.98;4.80;;;;;;;36.77;24.32;99282.53;4483108;31;32288;-60
2022/06/29 11:23:19;;;;;;;5.20;3.25;;;;;;;36.16;25.75;99283.22;4482787;31;32203;-64
2022/06/29 11:25:54;;;;;;;4.80;3.30;;;;;;;36.55;25.42;99277.50;4499740;31;35046;-60
2022/06/29 11:28:27;;;;;;;7.00;3.00;;;;;;;36.89;25.14;99258.94;4490267;31;34352;-63
2022/06/29 11:31:02;;;;;;;5.70;3.67;;;;;;;36.24;26.22;99268.63;4493672;31;33841;-60
2022/06/29 11:33:52;;;;;;;5.78;3.15;;;;;;;37.01;24.53;99265.75;4487870;31;33576;-60
2022/06/29 11:36:28;;;;;;;4.80;3.30;;;;;;;37.02;24.19;99258.25;4482035;31;33699;-62
2022/06/29 11:38:57;;;;;;;6.37;3.40;;;;;;;36.91;23.93;99249.13;4485326;31;33817;-60
2022/06/29 11:43:03;;;;;;;6.45;3.30;;;;;;;37.28;23.04;99248.34;4484977;31;33748;-61
2022/06/29 11:44:27;;;;;;;9.32;3.58;;;;;;;36.94;23.42;99242.97;4486239;31;33257;-61
2022/06/29 11:46:56;;;;;;;5.07;3.12;;;;;;;36.94;23.66;99242.12;4494012;31;32121;-61
2022/06/29 11:49:38;;;;;;;5.22;3.03;;;;;;;36.41;23.96;99237.53;4490107;31;33184;-62
2022/06/29 11:52:13;;;;;;;4.95;3.22;;;;;;;36.54;24.54;99244.38;4480152;31;33119;-62
2022/06/29 11:54:48;;;;;;;5.18;3.10;;;;;;;36.78;24.19;99239.56;4496753;31;34355;-63
2022/06/29 11:57:18;;;;;;;6.97;3.20;;;;;;;36.63;23.88;99239.78;4487838;31;35069;-63
2022/06/29 11:59:46;;;;;;;8.05;2.95;;;;;;;37.05;22.54;99235.31;4489669;31;33702;-60
2022/06/29 12:02:16;;;;;;;4.68;3.05;;;;;;;36.92;23.29;99230.44;4494699;31;35762;-60
2022/06/29 12:04:45;;;;;;;6.72;3.03;;;;;;;36.87;23.67;99234.16;4488965;31;33270;-63
2022/06/29 12:07:17;;;;;;;4.80;3.00;;;;;;;36.76;23.93;99229.81;4487263;31;32686;-61
2022/06/29 12:09:45;;;;;;;4.87;2.83;;;;;;;36.32;23.86;99212.28;4484246;31;32785;-64